Time;durP1;ratioP1;P1;durP2;ratioP2;P2;SDS_P1;SDS_P2;PMS_P1;PMS_P2;Temp;Humidity;BMP_temperature;BMP_pressure;BME280_temperature;BME280_humidity;BME280_pressure;Samples;Min_cycle;Max_cycle;Signal;HPM_P1;HPM_P2
2021/03/14 00:01:22;;;;;;;1.70;0.80;;;5.60;99.90;;;;;;5011897;28;20191;-71
2021/03/14 00:03:48;;;;;;;2.97;1.27;;;5.60;99.90;;;;;;5011856;28;20750;-68
2021/03/14 00:06:13;;;;;;;7.13;1.43;;;5.60;99.90;;;;;;5012055;28;20662;-70
2021/03/14 00:08:39;;;;;;;3.23;1.10;;;5.60;99.90;;;;;;5010723;28;20721;-71
2021/03/14 00:11:07;;;;;;;4.40;0.90;;;5.60;99.90;;;;;;5014278;28;20646;-69
2021/03/14 00:13:34;;;;;;;4.10;1.43;;;5.50;99.90;;;;;;5011709;28;20411;-68
2021/03/14 00:16:02;;;;;;;5.43;1.40;;;5.50;99.90;;;;;;5011471;28;20411;-70
2021/03/14 00:18:33;;;;;;;5.37;1.30;;;5.50;99.90;;;;;;5011921;28;20416;-70
2021/03/14 00:20:59;;;;;;;3.90;1.20;;;5.50;99.90;;;;;;5011298;28;20404;-70
2021/03/14 00:23:26;;;;;;;5.53;1.03;;;5.50;99.90;;;;;;5030343;28;20418;-68
2021/03/14 00:25:52;;;;;;;2.10;1.40;;;5.40;99.90;;;;;;5030856;28;20411;-69
2021/03/14 00:28:18;;;;;;;3.27;1.33;;;5.50;99.90;;;;;;5029924;28;20406;-68
2021/03/14 00:30:45;;;;;;;2.83;1.13;;;5.50;99.90;;;;;;5011459;28;20469;-70
2021/03/14 00:33:10;;;;;;;3.13;1.30;;;5.50;99.90;;;;;;5011063;28;20422;-69
2021/03/14 00:35:36;;;;;;;4.00;1.40;;;5.50;99.90;;;;;;5011311;28;20415;-69
2021/03/14 00:38:02;;;;;;;2.80;1.00;;;5.50;99.90;;;;;;5029748;28;20526;-69
2021/03/14 00:40:28;;;;;;;4.07;1.10;;;5.50;99.90;;;;;;5015770;28;20188;-69
2021/03/14 00:42:57;;;;;;;3.27;1.63;;;5.50;99.90;;;;;;5017080;28;20578;-69
2021/03/14 00:45:23;;;;;;;2.57;1.03;;;5.50;99.90;;;;;;5021415;28;20271;-72
2021/03/14 00:47:48;;;;;;;3.13;1.00;;;5.50;99.90;;;;;;5025331;28;20588;-69
2021/03/14 00:50:15;;;;;;;1.20;0.77;;;5.50;99.90;;;;;;5018262;28;20172;-70
2021/03/14 00:52:40;;;;;;;4.10;1.10;;;5.50;99.90;;;;;;5016860;28;20188;-70
2021/03/14 00:55:06;;;;;;;2.20;1.00;;;5.40;99.90;;;;;;5030007;28;20407;-69
2021/03/14 00:57:34;;;;;;;5.83;1.10;;;5.40;99.90;;;;;;5030561;28;20188;-71
2021/03/14 01:00:00;;;;;;;0.83;0.70;;;5.40;99.90;;;;;;5017086;28;20423;-69
2021/03/14 01:02:25;;;;;;;2.30;0.90;;;5.40;99.90;;;;;;5018239;28;20777;-71
2021/03/14 01:04:51;;;;;;;2.77;0.83;;;5.30;99.90;;;;;;5020184;28;20264;-70
2021/03/14 01:07:17;;;;;;;2.40;0.50;;;5.30;99.90;;;;;;5012156;28;20759;-68
2021/03/14 01:09:42;;;;;;;1.57;0.60;;;5.30;99.90;;;;;;5022759;28;20270;-72
2021/03/14 01:12:08;;;;;;;1.67;1.13;;;5.30;99.90;;;;;;5013260;28;20219;-69
2021/03/14 01:14:35;;;;;;;3.40;2.40;;;5.20;99.90;;;;;;5011951;28;20257;-69
2021/03/14 01:17:07;;;;;;;4.53;2.20;;;5.20;99.90;;;;;;5000828;28;20835;-69
2021/03/14 01:19:33;;;;;;;6.17;2.60;;;5.20;99.90;;;;;;5025321;28;20425;-69
2021/03/14 01:21:58;;;;;;;4.77;2.50;;;5.20;99.90;;;;;;5030661;28;20438;-70
2021/03/14 01:24:30;;;;;;;3.77;1.90;;;5.10;99.90;;;;;;5030787;28;20180;-68
2021/03/14 01:26:57;;;;;;;5.23;2.10;;;5.10;99.90;;;;;;5018863;28;20199;-69
2021/03/14 01:29:23;;;;;;;2.87;1.60;;;5.10;99.90;;;;;;5011056;28;20455;-70
2021/03/14 01:31:48;;;;;;;3.80;1.40;;;5.10;99.90;;;;;;5027260;28;20469;-70
2021/03/14 01:34:14;;;;;;;2.37;1.20;;;5.00;99.90;;;;;;5010679;28;20589;-70
2021/03/14 01:36:39;;;;;;;5.53;1.50;;;5.00;99.90;;;;;;5020463;28;20211;-69
2021/03/14 01:39:05;;;;;;;3.03;1.50;;;5.00;99.90;;;;;;5030132;28;20258;-69
2021/03/14 01:41:31;;;;;;;4.73;1.67;;;5.00;99.90;;;;;;5030482;28;20885;-69
2021/03/14 01:43:58;;;;;;;3.37;1.83;;;5.00;99.90;;;;;;5030180;28;20515;-67
2021/03/14 01:46:23;;;;;;;3.67;2.40;;;5.00;99.90;;;;;;5030312;28;20526;-69
2021/03/14 01:48:49;;;;;;;4.20;2.17;;;5.00;99.90;;;;;;5030379;28;20452;-68
2021/03/14 01:51:15;;;;;;;3.43;2.40;;;5.10;99.90;;;;;;5030173;28;20221;-69
2021/03/14 01:53:41;;;;;;;4.50;2.57;;;5.00;99.90;;;;;;5027421;28;20169;-68
2021/03/14 01:56:07;;;;;;;3.20;2.20;;;5.00;99.90;;;;;;5004174;28;20176;-69
2021/03/14 01:58:34;;;;;;;3.40;1.87;;;5.00;99.90;;;;;;5015343;28;20496;-70
2021/03/14 02:01:00;;;;;;;4.93;2.10;;;5.00;99.90;;;;;;5010546;28;20412;-69
2021/03/14 02:03:26;;;;;;;3.10;2.00;;;5.10;99.90;;;;;;5010314;28;20426;-71
2021/03/14 02:05:51;;;;;;;4.57;1.97;;;5.10;99.90;;;;;;5010304;28;20247;-69
2021/03/14 02:08:19;;;;;;;3.90;1.47;;;5.10;99.90;;;;;;5010753;28;20220;-70
2021/03/14 02:10:48;;;;;;;3.13;1.50;;;5.10;99.90;;;;;;5010234;28;20181;-68
2021/03/14 02:13:20;;;;;;;3.70;1.40;;;5.10;99.90;;;;;;5010080;28;20432;-69
2021/03/14 02:15:51;;;;;;;2.67;1.47;;;5.10;99.90;;;;;;5013734;28;20423;-69
2021/03/14 02:18:18;;;;;;;1.83;1.40;;;5.20;99.90;;;;;;5006955;28;20424;-71
2021/03/14 02:20:45;;;;;;;3.30;1.30;;;5.20;99.90;;;;;;4994327;28;20507;-70
2021/03/14 02:23:30;;;;;;;6.63;1.20;;;5.20;99.90;;;;;;5007793;28;21118;-70
2021/03/14 02:26:12;;;;;;;2.23;1.70;;;5.20;99.90;;;;;;4994255;28;20761;-69
2021/03/14 02:28:38;;;;;;;3.13;1.27;;;5.20;99.90;;;;;;4994235;28;20508;-69
2021/03/14 02:31:06;;;;;;;3.97;1.30;;;5.20;99.90;;;;;;4994132;28;20423;-70
2021/03/14 02:33:34;;;;;;;3.47;1.30;;;5.40;99.90;;;;;;4993842;28;20902;-70
2021/03/14 02:36:00;;;;;;;2.50;1.10;;;5.20;99.90;;;;;;4994164;28;20424;-69
2021/03/14 02:38:26;;;;;;;4.40;1.00;;;5.20;99.90;;;;;;5011549;28;20446;-71
2021/03/14 02:40:55;;;;;;;3.00;1.27;;;5.20;99.90;;;;;;4993796;28;20541;-68
2021/03/14 02:43:25;;;;;;;2.67;1.00;;;5.20;99.90;;;;;;5009967;28;20180;-69
2021/03/14 02:45:53;;;;;;;4.50;1.40;;;5.20;99.90;;;;;;4999215;28;20424;-71
2021/03/14 02:48:19;;;;;;;4.13;1.20;;;5.10;99.90;;;;;;4993800;28;20427;-69
2021/03/14 02:50:46;;;;;;;4.50;1.03;;;5.00;99.90;;;;;;4993777;28;20474;-69
2021/03/14 02:53:12;;;;;;;3.70;1.30;;;5.00;99.90;;;;;;4993642;28;20833;-69
2021/03/14 02:55:38;;;;;;;1.87;1.00;;;5.00;99.90;;;;;;4993660;28;20462;-68
2021/03/14 02:58:04;;;;;;;3.83;1.70;;;5.00;99.90;;;;;;4999215;28;20209;-70
2021/03/14 03:00:32;;;;;;;2.73;1.07;;;4.90;99.90;;;;;;4996352;28;20196;-69
2021/03/14 03:02:59;;;;;;;4.00;1.20;;;5.00;99.90;;;;;;4993286;28;20506;-68
2021/03/14 03:05:25;;;;;;;3.70;1.20;;;5.00;99.90;;;;;;4996185;28;20501;-69
2021/03/14 03:07:54;;;;;;;2.07;1.40;;;5.00;99.90;;;;;;5014105;28;20847;-69
2021/03/14 03:10:21;;;;;;;1.83;1.50;;;5.00;99.90;;;;;;5013685;28;20746;-71
2021/03/14 03:12:49;;;;;;;4.77;1.40;;;5.00;99.90;;;;;;5012988;28;20415;-68
2021/03/14 03:15:18;;;;;;;4.80;1.40;;;5.10;99.90;;;;;;5012474;28;20420;-68
2021/03/14 03:17:44;;;;;;;2.53;1.30;;;5.10;99.90;;;;;;5012821;28;20419;-69
2021/03/14 03:20:12;;;;;;;2.57;1.37;;;5.10;99.90;;;;;;5012524;28;20443;-69
2021/03/14 03:22:38;;;;;;;3.67;1.20;;;5.10;99.90;;;;;;5012972;28;20435;-68
2021/03/14 03:25:05;;;;;;;3.40;1.43;;;5.10;99.90;;;;;;5011859;28;20427;-69
2021/03/14 03:27:34;;;;;;;2.10;1.37;;;5.10;99.90;;;;;;5012053;28;20200;-68
2021/03/14 03:30:00;;;;;;;4.47;1.40;;;5.10;99.90;;;;;;5012484;28;20429;-69
2021/03/14 03:32:25;;;;;;;2.93;1.20;;;5.10;99.90;;;;;;5012486;28;20419;-67
2021/03/14 03:34:52;;;;;;;1.57;1.47;;;5.10;99.90;;;;;;5012577;28;20164;-68
2021/03/14 03:37:17;;;;;;;3.70;1.77;;;5.20;99.90;;;;;;5012342;28;20746;-68
2021/03/14 03:39:43;;;;;;;2.83;1.63;;;5.10;99.90;;;;;;5012510;28;20514;-69
2021/03/14 03:42:20;;;;;;;2.67;1.20;;;5.10;99.90;;;;;;5012426;28;20577;-70
2021/03/14 03:44:47;;;;;;;3.97;1.40;;;5.10;99.90;;;;;;5011950;28;20180;-69
2021/03/14 03:47:14;;;;;;;3.73;1.63;;;5.10;99.90;;;;;;5012265;28;20458;-69
2021/03/14 03:49:43;;;;;;;3.20;1.57;;;5.00;99.90;;;;;;5012073;28;20774;-70
2021/03/14 03:52:17;;;;;;;4.10;1.80;;;5.10;99.90;;;;;;5012352;28;20785;-69
2021/03/14 03:54:46;;;;;;;5.30;2.03;;;5.00;99.90;;;;;;5011855;28;20424;-69
2021/03/14 03:57:13;;;;;;;3.23;1.90;;;5.00;99.90;;;;;;5012067;28;20412;-69
2021/03/14 03:59:39;;;;;;;3.17;1.70;;;5.00;99.90;;;;;;5011811;28;20412;-70
2021/03/14 04:02:06;;;;;;;5.23;1.90;;;5.00;99.90;;;;;;5012191;28;20528;-69
2021/03/14 04:04:34;;;;;;;4.57;2.30;;;5.00;99.90;;;;;;5011729;28;20458;-69
2021/03/14 04:07:02;;;;;;;4.73;2.20;;;5.00;99.90;;;;;;5011689;28;20856;-71
2021/03/14 04:09:35;;;;;;;3.73;2.30;;;5.00;99.90;;;;;;5013027;28;20569;-69
2021/03/14 04:12:01;;;;;;;5.27;2.30;;;5.00;99.90;;;;;;5011934;28;20415;-70
2021/03/14 04:14:29;;;;;;;4.07;2.00;;;5.10;99.90;;;;;;5012017;28;20917;-71
2021/03/14 04:16:55;;;;;;;3.10;2.10;;;5.10;99.90;;;;;;5011808;28;20485;-71
2021/03/14 04:19:25;;;;;;;3.47;2.00;;;5.00;99.90;;;;;;5011851;28;20491;-70
2021/03/14 04:21:52;;;;;;;5.97;1.93;;;5.00;99.90;;;;;;5011378;28;20827;-70
2021/03/14 04:24:19;;;;;;;2.73;1.80;;;5.10;99.90;;;;;;4992753;28;20501;-71
2021/03/14 04:26:46;;;;;;;4.97;1.80;;;5.10;99.90;;;;;;5011647;28;20454;-72
2021/03/14 04:29:13;;;;;;;2.60;1.67;;;5.10;99.90;;;;;;5011547;28;20851;-70
2021/03/14 04:31:48;;;;;;;2.33;1.47;;;5.10;99.90;;;;;;5011515;28;20502;-68
2021/03/14 04:34:15;;;;;;;5.20;1.37;;;5.00;99.90;;;;;;5011159;28;20419;-72
2021/03/14 04:36:42;;;;;;;1.60;1.00;;;5.00;99.90;;;;;;5011075;28;20416;-69
2021/03/14 04:39:08;;;;;;;3.40;0.90;;;4.80;99.90;;;;;;5011303;28;20462;-71
2021/03/14 04:41:36;;;;;;;1.80;0.90;;;4.70;99.90;;;;;;5011477;28;20415;-70
2021/03/14 04:44:05;;;;;;;4.63;1.30;;;4.60;99.90;;;;;;5011065;28;20832;-70
2021/03/14 04:46:31;;;;;;;1.23;0.70;;;4.50;99.90;;;;;;5011215;28;20488;-71
2021/03/14 04:48:57;;;;;;;0.83;0.63;;;4.50;99.90;;;;;;5011148;28;20417;-70
2021/03/14 04:51:26;;;;;;;4.20;1.17;;;4.40;99.90;;;;;;5011044;28;20418;-70
2021/03/14 04:53:53;;;;;;;0.73;0.70;;;4.30;99.90;;;;;;5010974;28;20482;-71
2021/03/14 04:56:20;;;;;;;1.63;0.90;;;4.30;99.90;;;;;;4993254;28;20423;-71
2021/03/14 04:58:48;;;;;;;2.07;0.80;;;4.40;99.90;;;;;;5011217;28;20454;-71
2021/03/14 05:01:18;;;;;;;2.33;1.20;;;4.40;99.90;;;;;;5011110;28;20795;-71
2021/03/14 05:03:45;;;;;;;1.87;1.10;;;4.40;99.90;;;;;;5011201;28;20438;-71
2021/03/14 05:06:12;;;;;;;2.77;1.20;;;;;;;;;;5010828;28;20424;-70
2021/03/14 05:08:44;;;;;;;2.20;1.20;;;4.50;99.90;;;;;;5012214;28;21006;-70
2021/03/14 05:11:10;;;;;;;2.23;1.30;;;4.50;99.90;;;;;;5010802;28;20403;-71
2021/03/14 05:13:38;;;;;;;3.43;1.20;;;4.40;99.90;;;;;;5010904;28;20414;-70
2021/03/14 05:16:05;;;;;;;1.10;1.00;;;4.30;99.90;;;;;;5010753;28;20242;-71
2021/03/14 05:18:31;;;;;;;1.20;0.77;;;4.10;99.90;;;;;;5010770;28;20909;-71
2021/03/14 05:20:57;;;;;;;2.10;1.00;;;3.90;99.90;;;;;;5011039;28;20427;-70
2021/03/14 05:23:24;;;;;;;3.87;0.93;;;3.80;99.90;;;;;;5010614;28;20638;-70
2021/03/14 05:25:51;;;;;;;5.00;0.90;;;3.80;99.90;;;;;;5010804;28;20177;-69
2021/03/14 05:28:19;;;;;;;3.33;1.00;;;3.70;99.90;;;;;;5010334;28;20524;-67
2021/03/14 05:30:45;;;;;;;3.30;1.10;;;3.60;99.90;;;;;;5010998;28;20419;-70
2021/03/14 05:33:12;;;;;;;1.50;1.23;;;3.60;99.90;;;;;;5010634;28;20423;-70
2021/03/14 05:35:39;;;;;;;1.17;1.00;;;3.60;99.90;;;;;;5010846;28;20606;-70
2021/03/14 05:38:04;;;;;;;1.37;1.27;;;3.80;99.90;;;;;;5010468;28;20438;-70
2021/03/14 05:40:30;;;;;;;2.97;1.10;;;3.90;99.90;;;;;;5010728;28;20416;-69
2021/03/14 05:42:58;;;;;;;1.83;1.17;;;3.90;99.90;;;;;;5010596;28;20180;-69
2021/03/14 05:45:25;;;;;;;3.23;1.43;;;4.00;99.90;;;;;;5010417;28;20427;-69
2021/03/14 05:47:51;;;;;;;3.93;2.17;;;3.90;99.90;;;;;;5010518;28;20477;-69
2021/03/14 05:50:25;;;;;;;3.23;1.70;;;4.00;99.90;;;;;;5013779;28;20416;-68
2021/03/14 05:52:51;;;;;;;4.30;1.80;;;4.20;99.90;;;;;;5014457;28;20462;-71
2021/03/14 05:55:22;;;;;;;8.43;2.23;;;4.20;99.90;;;;;;4996820;28;20426;-70
2021/03/14 05:57:52;;;;;;;4.33;1.60;;;4.30;99.90;;;;;;5014090;28;20423;-69
2021/03/14 06:00:26;;;;;;;4.03;1.67;;;4.30;99.90;;;;;;5014537;28;20411;-70
2021/03/14 06:02:57;;;;;;;5.47;2.07;;;4.40;99.90;;;;;;4996581;28;20469;-70
2021/03/14 06:05:24;;;;;;;4.03;1.60;;;4.40;99.90;;;;;;5014207;28;20451;-70
2021/03/14 06:07:50;;;;;;;5.63;1.70;;;4.40;99.90;;;;;;5014384;28;20490;-68
2021/03/14 06:10:17;;;;;;;5.87;1.60;;;4.50;99.90;;;;;;5029356;28;20531;-71
2021/03/14 06:12:44;;;;;;;5.87;1.87;;;4.50;99.90;;;;;;5033956;28;20254;-69
2021/03/14 06:15:11;;;;;;;5.50;1.63;;;4.50;99.90;;;;;;5033527;28;20425;-70
2021/03/14 06:17:37;;;;;;;6.20;1.87;;;4.60;99.90;;;;;;5019292;28;20609;-69
2021/03/14 06:20:05;;;;;;;6.37;1.70;;;4.60;99.90;;;;;;5033270;28;20422;-69
2021/03/14 06:22:31;;;;;;;6.60;1.77;;;4.60;99.90;;;;;;5033786;28;20446;-70
2021/03/14 06:24:56;;;;;;;4.90;1.87;;;4.60;99.90;;;;;;5033725;28;20508;-69
2021/03/14 06:27:51;;;;;;;8.70;2.00;;;4.60;99.90;;;;;;5032792;28;20257;-68
2021/03/14 06:30:28;;;;;;;5.67;1.40;;;4.60;99.90;;;;;;5033137;28;20164;-70
2021/03/14 06:33:15;;;;;;;5.20;1.80;;;4.60;99.90;;;;;;5033239;28;20417;-68
2021/03/14 06:35:54;;;;;;;5.37;1.70;;;4.60;99.90;;;;;;5033375;28;20452;-68
2021/03/14 06:38:20;;;;;;;5.57;1.43;;;4.70;99.90;;;;;;5033256;28;20422;-68
2021/03/14 06:40:47;;;;;;;8.47;2.03;;;4.70;99.90;;;;;;5033060;28;20783;-68
2021/03/14 06:43:13;;;;;;;5.43;2.00;;;4.70;99.90;;;;;;5033613;28;20240;-68
2021/03/14 06:45:40;;;;;;;5.97;1.80;;;4.70;99.90;;;;;;5033092;28;20427;-69
2021/03/14 06:48:07;;;;;;;3.57;1.70;;;4.80;99.90;;;;;;5033532;28;20461;-67
2021/03/14 06:50:32;;;;;;;4.83;2.30;;;4.80;99.90;;;;;;5033450;28;20904;-69
2021/03/14 06:53:27;;;;;;;10.20;1.93;;;4.80;99.90;;;;;;5015363;28;20430;-69
2021/03/14 06:56:04;;;;;;;5.73;1.87;;;4.90;99.90;;;;;;5012243;28;20195;-69
2021/03/14 06:58:36;;;;;;;5.97;2.17;;;4.70;99.90;;;;;;5033058;28;20414;-69
2021/03/14 07:01:21;;;;;;;7.03;2.00;;;4.80;99.90;;;;;;5033178;28;20872;-68
2021/03/14 07:03:51;;;;;;;3.30;1.80;;;4.80;99.90;;;;;;5033116;28;20888;-68
2021/03/14 07:06:26;;;;;;;4.43;1.37;;;4.70;99.90;;;;;;5033030;28;21042;-67
2021/03/14 07:09:09;;;;;;;3.63;1.63;;;4.70;99.90;;;;;;5027370;28;20459;-68
2021/03/14 07:11:40;;;;;;;4.33;1.50;;;4.70;99.90;;;;;;5013149;28;20472;-69
2021/03/14 07:14:12;;;;;;;7.53;1.97;;;4.70;99.90;;;;;;5013374;28;20953;-70
2021/03/14 07:16:50;;;;;;;2.27;1.60;;;4.90;99.90;;;;;;5013137;28;20898;-67
2021/03/14 07:19:25;;;;;;;7.10;1.50;;;4.90;99.90;;;;;;5013206;28;20419;-69
2021/03/14 07:22:09;;;;;;;6.20;1.43;;;5.00;99.90;;;;;;5012959;28;20419;-69
2021/03/14 07:24:42;;;;;;;5.67;1.80;;;5.00;99.90;;;;;;5013184;28;20735;-70
2021/03/14 07:27:12;;;;;;;4.97;1.40;;;5.10;99.90;;;;;;5013030;28;20968;-69
2021/03/14 07:29:39;;;;;;;2.13;1.00;;;5.10;99.90;;;;;;5012806;28;20400;-67
2021/03/14 07:32:07;;;;;;;6.37;1.33;;;5.20;99.90;;;;;;5012730;28;20424;-70
2021/03/14 07:34:34;;;;;;;4.10;1.10;;;5.20;99.90;;;;;;5012668;28;20473;-70
2021/03/14 07:37:00;;;;;;;4.40;1.33;;;5.20;99.90;;;;;;5012584;28;20431;-68
2021/03/14 07:39:26;;;;;;;2.50;1.10;;;5.20;99.90;;;;;;5012778;28;20416;-68
2021/03/14 07:41:52;;;;;;;3.87;1.33;;;5.20;99.90;;;;;;4994701;28;20424;-68
2021/03/14 07:44:21;;;;;;;2.37;1.40;;;5.10;99.90;;;;;;5012518;28;20422;-68
2021/03/14 07:46:47;;;;;;;4.80;1.47;;;5.20;99.90;;;;;;5012373;28;20208;-69
2021/03/14 07:49:15;;;;;;;4.07;1.60;;;5.20;99.90;;;;;;5012336;28;20416;-69
2021/03/14 07:52:07;;;;;;;4.20;1.60;;;5.20;99.90;;;;;;5012492;28;20418;-68
2021/03/14 07:54:42;;;;;;;5.93;1.50;;;5.30;99.90;;;;;;5012381;28;20427;-70
2021/03/14 07:57:20;;;;;;;2.20;1.33;;;5.30;99.90;;;;;;5012444;28;20817;-67
2021/03/14 07:59:46;;;;;;;5.17;1.23;;;5.40;99.90;;;;;;5012400;28;20426;-67
2021/03/14 08:02:20;;;;;;;6.57;1.33;;;5.40;99.90;;;;;;5011764;28;20427;-69
2021/03/14 08:04:57;;;;;;;6.07;1.60;;;5.50;99.90;;;;;;5012133;28;20666;-68
2021/03/14 08:07:35;;;;;;;5.30;1.40;;;5.50;99.90;;;;;;5012094;28;20554;-68
2021/03/14 08:10:05;;;;;;;4.90;1.57;;;5.40;99.90;;;;;;5013480;28;20522;-69
2021/03/14 08:12:42;;;;;;;3.63;1.70;;;5.40;99.90;;;;;;5011668;28;20431;-69
2021/03/14 08:15:26;;;;;;;5.50;1.23;;;5.40;99.90;;;;;;5012053;28;20410;-69
2021/03/14 08:17:55;;;;;;;5.20;2.00;;;5.30;99.90;;;;;;5011922;28;20451;-68
2021/03/14 08:20:36;;;;;;;4.10;1.40;;;5.40;99.90;;;;;;5011926;28;20932;-68
2021/03/14 08:23:02;;;;;;;3.17;1.30;;;5.40;99.90;;;;;;5011963;28;20778;-68
2021/03/14 08:25:29;;;;;;;6.23;1.10;;;5.40;99.90;;;;;;5011682;28;20423;-67
2021/03/14 08:28:02;;;;;;;5.30;1.50;;;5.40;99.90;;;;;;4993981;28;20266;-68
2021/03/14 08:30:30;;;;;;;4.83;1.43;;;5.40;99.90;;;;;;5011400;28;20435;-67
2021/03/14 08:33:18;;;;;;;2.43;1.30;;;5.30;99.90;;;;;;5011638;28;20454;-67
2021/03/14 08:35:50;;;;;;;3.30;1.57;;;5.30;99.90;;;;;;5010923;28;20885;-70
2021/03/14 08:38:29;;;;;;;3.50;1.20;;;5.30;99.90;;;;;;5011317;28;20771;-70
2021/03/14 08:41:20;;;;;;;6.57;1.53;;;5.30;99.90;;;;;;5011428;28;20411;-68
2021/03/14 08:43:49;;;;;;;5.17;1.70;;;5.30;99.90;;;;;;5010920;28;20945;-69
2021/03/14 08:46:15;;;;;;;3.77;1.33;;;5.30;99.90;;;;;;5011320;28;20434;-69
2021/03/14 08:48:41;;;;;;;1.90;1.10;;;5.30;99.90;;;;;;5011195;28;20450;-69
2021/03/14 08:51:09;;;;;;;3.77;1.20;;;5.30;99.90;;;;;;5011427;28;20658;-69
2021/03/14 08:53:36;;;;;;;3.20;1.03;;;5.20;99.90;;;;;;5009770;28;20173;-71
2021/03/14 08:56:03;;;;;;;5.07;1.30;;;5.20;99.90;;;;;;5010114;28;20558;-69
2021/03/14 08:58:29;;;;;;;2.97;1.57;;;5.20;99.90;;;;;;5010557;28;20449;-70
2021/03/14 09:01:11;;;;;;;4.87;1.83;;;5.20;99.90;;;;;;4993535;28;20462;-68
2021/03/14 09:03:44;;;;;;;6.33;1.63;;;5.20;99.90;;;;;;5011280;28;20654;-68
2021/03/14 09:06:29;;;;;;;3.87;1.30;;;5.20;99.90;;;;;;5011157;28;20419;-68
2021/03/14 09:09:05;;;;;;;2.30;1.43;;;5.10;99.90;;;;;;5007703;28;20452;-70
2021/03/14 09:11:53;;;;;;;9.77;2.70;;;5.10;99.90;;;;;;4991460;28;21279;-70
2021/03/14 09:14:23;;;;;;;4.73;2.27;;;5.10;99.90;;;;;;5010052;28;20940;-69
2021/03/14 09:16:50;;;;;;;4.90;2.57;;;5.20;99.90;;;;;;5010871;28;20515;-70
2021/03/14 09:19:23;;;;;;;6.67;2.73;;;5.30;99.90;;;;;;5011068;28;20449;-68
2021/03/14 09:21:50;;;;;;;4.27;1.90;;;5.30;99.90;;;;;;5010714;28;20506;-70
2021/03/14 09:24:46;;;;;;;6.20;2.00;;;5.50;99.90;;;;;;5009953;28;20510;-70
2021/03/14 09:27:16;;;;;;;7.50;1.97;;;5.60;99.90;;;;;;4993976;28;20459;-70
2021/03/14 09:29:41;;;;;;;6.80;1.83;;;5.60;99.90;;;;;;5011107;28;20836;-70
2021/03/14 09:32:29;;;;;;;4.87;1.80;;;5.70;99.90;;;;;;5010965;28;20502;-70
2021/03/14 09:35:13;;;;;;;10.50;2.00;;;5.90;99.90;;;;;;5010976;28;20176;-71
2021/03/14 09:37:39;;;;;;;5.63;1.43;;;6.00;99.90;;;;;;5010798;28;20422;-69
2021/03/14 09:40:28;;;;;;;7.67;1.80;;;6.20;99.90;;;;;;5010615;28;20919;-70
2021/03/14 09:43:22;;;;;;;5.20;1.47;;;6.30;99.90;;;;;;5009115;28;20492;-69
2021/03/14 09:45:50;;;;;;;9.13;1.90;;;6.40;99.90;;;;;;5010847;28;20431;-68
2021/03/14 09:48:25;;;;;;;6.53;2.20;;;6.50;99.90;;;;;;4990908;28;20961;-70
2021/03/14 09:50:54;;;;;;;4.73;1.47;;;6.50;99.90;;;;;;4991916;28;20419;-69
2021/03/14 09:53:28;;;;;;;5.80;1.60;;;6.40;99.90;;;;;;5010557;28;20840;-70
2021/03/14 09:55:57;;;;;;;6.43;1.70;;;6.30;99.90;;;;;;5010799;28;20408;-70
2021/03/14 09:58:25;;;;;;;5.17;1.70;;;6.40;99.90;;;;;;4991252;28;20764;-69
2021/03/14 10:00:52;;;;;;;4.07;1.40;;;6.40;99.90;;;;;;4991021;28;20424;-70
2021/03/14 10:03:24;;;;;;;7.57;1.80;;;6.40;99.90;;;;;;4991017;28;20427;-70
2021/03/14 10:05:55;;;;;;;5.77;1.90;;;6.50;99.90;;;;;;5004260;28;20581;-71
2021/03/14 10:08:29;;;;;;;4.50;1.60;;;6.40;99.90;;;;;;5010290;28;20482;-69
2021/03/14 10:11:04;;;;;;;8.40;1.93;;;6.30;99.90;;;;;;5010567;28;20473;-69
2021/03/14 10:13:32;;;;;;;5.00;2.10;;;6.30;99.90;;;;;;5010492;28;20419;-70
2021/03/14 10:15:59;;;;;;;5.97;2.20;;;6.30;99.90;;;;;;5010730;28;20454;-69
2021/03/14 10:18:27;;;;;;;9.20;1.77;;;6.30;99.90;;;;;;4992794;28;20442;-70
2021/03/14 10:21:22;;;;;;;9.63;2.20;;;6.30;99.90;;;;;;5002503;28;20482;-69
2021/03/14 10:23:50;;;;;;;5.03;2.00;;;6.30;99.90;;;;;;5010433;28;20503;-68
2021/03/14 10:26:16;;;;;;;8.60;2.43;;;6.20;99.90;;;;;;5010373;28;20408;-69
2021/03/14 10:28:44;;;;;;;6.33;2.00;;;6.20;99.90;;;;;;5010205;28;20514;-69
2021/03/14 10:31:11;;;;;;;7.57;2.03;;;6.10;99.90;;;;;;4992757;28;20434;-70
2021/03/14 10:33:41;;;;;;;4.83;1.47;;;6.00;99.90;;;;;;5010308;28;20784;-71
2021/03/14 10:36:11;;;;;;;5.90;2.33;;;5.80;99.90;;;;;;5012826;28;20759;-71
2021/03/14 10:38:52;;;;;;;6.17;2.80;;;5.60;99.90;;;;;;5013831;28;20527;-69
2021/03/14 10:41:20;;;;;;;6.07;2.37;;;5.50;99.90;;;;;;5013929;28;20753;-70
2021/03/14 10:43:53;;;;;;;5.70;2.43;;;5.40;99.90;;;;;;5013644;28;20416;-68
2021/03/14 10:46:43;;;;;;;4.47;2.07;;;5.30;99.90;;;;;;5013735;28;20404;-70
2021/03/14 10:49:24;;;;;;;10.53;3.20;;;5.30;99.90;;;;;;5013597;28;20833;-71
2021/03/14 10:51:56;;;;;;;6.60;2.57;;;5.30;99.90;;;;;;5013525;28;20411;-68
2021/03/14 10:54:22;;;;;;;6.07;2.63;;;5.30;99.90;;;;;;5012127;28;20415;-70
2021/03/14 10:56:50;;;;;;;6.47;2.40;;;5.30;99.90;;;;;;5013474;28;20459;-69
2021/03/14 10:59:27;;;;;;;7.17;2.33;;;5.30;99.90;;;;;;5013376;28;20777;-69
2021/03/14 11:01:59;;;;;;;10.80;2.60;;;5.20;99.90;;;;;;5013329;28;20422;-70
2021/03/14 11:04:27;;;;;;;6.70;2.10;;;5.10;99.90;;;;;;5013358;28;20431;-69
2021/03/14 11:06:54;;;;;;;6.23;2.30;;;5.20;99.90;;;;;;5013071;28;20450;-69
2021/03/14 11:09:20;;;;;;;4.47;2.60;;;5.30;99.90;;;;;;5008188;28;20514;-68
2021/03/14 11:11:48;;;;;;;4.90;1.87;;;5.20;99.90;;;;;;5012559;28;20412;-69
2021/03/14 11:14:36;;;;;;;7.87;2.33;;;5.20;99.90;;;;;;5032674;28;20426;-67
2021/03/14 11:17:12;;;;;;;7.97;2.47;;;5.20;99.90;;;;;;5032656;28;20889;-68
2021/03/14 11:19:48;;;;;;;6.70;2.33;;;5.20;99.90;;;;;;5014939;28;20423;-67
2021/03/14 11:22:15;;;;;;;3.90;2.07;;;5.30;99.90;;;;;;5032711;28;20445;-67
2021/03/14 11:24:42;;;;;;;5.13;2.20;;;5.30;99.90;;;;;;5015018;28;20468;-68
2021/03/14 11:27:08;;;;;;;6.47;2.40;;;5.40;99.90;;;;;;5032500;28;20457;-68
2021/03/14 11:29:34;;;;;;;5.67;2.50;;;5.50;99.90;;;;;;5016712;28;20498;-67
2021/03/14 11:32:00;;;;;;;9.70;2.77;;;5.60;99.90;;;;;;5029404;28;20908;-66
2021/03/14 11:34:26;;;;;;;8.10;2.60;;;5.70;99.90;;;;;;5012646;28;20510;-70
2021/03/14 11:36:52;;;;;;;8.90;2.57;;;5.80;99.90;;;;;;5031482;28;20524;-69
2021/03/14 11:39:17;;;;;;;6.07;1.40;;;5.80;99.90;;;;;;5021054;28;20207;-69
2021/03/14 11:41:45;;;;;;;4.93;1.30;;;5.80;99.90;;;;;;5020004;28;20180;-68
2021/03/14 11:44:11;;;;;;;3.83;1.50;;;5.60;99.90;;;;;;5030289;28;20175;-69
2021/03/14 11:46:36;;;;;;;4.07;1.30;;;5.60;99.90;;;;;;5024074;28;20512;-68
2021/03/14 11:49:03;;;;;;;3.70;1.50;;;5.60;99.90;;;;;;5032032;28;20172;-69
2021/03/14 11:51:29;;;;;;;5.93;1.30;;;5.60;99.90;;;;;;5024678;28;20203;-69
2021/03/14 11:53:56;;;;;;;4.90;1.57;;;5.50;99.90;;;;;;5031800;28;20446;-69
2021/03/14 11:56:22;;;;;;;2.03;1.53;;;5.60;99.90;;;;;;5031461;28;20812;-69
2021/03/14 11:58:48;;;;;;;4.53;1.90;;;5.60;99.90;;;;;;5031143;28;20499;-69
2021/03/14 12:01:14;;;;;;;5.77;2.60;;;5.60;99.90;;;;;;5011878;28;20507;-69
2021/03/14 12:03:40;;;;;;;4.57;1.50;;;5.50;99.90;;;;;;5030735;28;20239;-68
2021/03/14 12:06:05;;;;;;;7.80;3.00;;;5.50;99.90;;;;;;5031512;28;20626;-68
2021/03/14 12:08:31;;;;;;;8.73;3.73;;;5.60;99.90;;;;;;5029447;28;20207;-68
2021/03/14 12:10:57;;;;;;;5.03;3.63;;;5.60;99.90;;;;;;5030956;28;20594;-69
2021/03/14 12:13:23;;;;;;;6.13;3.23;;;5.60;99.90;;;;;;5011619;28;20654;-69
2021/03/14 12:15:49;;;;;;;5.40;2.40;;;5.60;99.90;;;;;;5012812;28;20415;-68
2021/03/14 12:18:14;;;;;;;9.27;2.77;;;5.60;99.90;;;;;;5031373;28;20521;-68
2021/03/14 12:20:40;;;;;;;5.07;3.37;;;5.60;99.90;;;;;;5031588;28;20200;-69
2021/03/14 12:23:06;;;;;;;6.20;2.50;;;5.60;99.90;;;;;;5031302;28;20263;-68
2021/03/14 12:25:32;;;;;;;4.80;2.60;;;5.60;99.90;;;;;;5030977;28;20641;-69
2021/03/14 12:27:58;;;;;;;6.43;3.00;;;5.60;99.90;;;;;;5031266;28;20446;-68
2021/03/14 12:30:24;;;;;;;4.80;2.50;;;5.60;99.90;;;;;;5031367;28;20661;-69
2021/03/14 12:32:49;;;;;;;5.60;3.00;;;5.60;99.90;;;;;;5031435;28;20633;-69
2021/03/14 12:35:15;;;;;;;3.80;2.60;;;5.60;99.90;;;;;;5031051;28;20541;-67
2021/03/14 12:37:41;;;;;;;3.23;2.90;;;5.60;99.90;;;;;;5019421;28;20180;-66
2021/03/14 12:40:08;;;;;;;6.63;2.87;;;5.60;99.90;;;;;;5019465;28;20182;-68
2021/03/14 12:42:34;;;;;;;6.30;2.90;;;5.80;99.90;;;;;;5016666;28;20180;-68
2021/03/14 12:44:59;;;;;;;6.97;2.77;;;5.80;99.90;;;;;;5018033;28;20412;-67
2021/03/14 12:47:25;;;;;;;5.53;3.20;;;5.70;99.90;;;;;;5011071;28;20196;-67
2021/03/14 12:49:52;;;;;;;4.93;3.30;;;5.50;99.90;;;;;;5011366;28;20238;-68
2021/03/14 12:52:18;;;;;;;4.43;2.93;;;5.60;99.90;;;;;;5011056;28;20576;-67
2021/03/14 12:54:44;;;;;;;5.40;4.13;;;5.60;99.90;;;;;;5011400;28;20502;-69
2021/03/14 12:57:09;;;;;;;4.27;2.80;;;5.60;99.90;;;;;;5011011;28;20586;-68
2021/03/14 12:59:35;;;;;;;3.30;2.33;;;5.80;99.90;;;;;;5022729;28;20216;-69
2021/03/14 13:02:00;;;;;;;3.20;2.27;;;5.80;99.90;;;;;;5029850;28;20188;-69
2021/03/14 13:04:27;;;;;;;2.73;2.43;;;5.90;99.90;;;;;;5030477;28;20182;-69
2021/03/14 13:06:53;;;;;;;2.83;2.23;;;6.00;99.90;;;;;;5030823;28;20187;-68
2021/03/14 13:09:19;;;;;;;3.30;2.40;;;6.10;99.90;;;;;;5009125;28;20877;-69